createdAt,value
2022-09-20T00:02:12.021Z,13.45
2022-09-20T00:04:42.104Z,13.53
2022-09-20T00:07:11.955Z,13.45
2022-09-20T00:09:41.791Z,13.57
2022-09-20T00:12:12.172Z,13.55
2022-09-20T00:14:41.960Z,13.62
2022-09-20T00:17:11.789Z,13.64
2022-09-20T00:19:41.623Z,13.49
2022-09-20T00:22:11.614Z,13.48
2022-09-20T00:24:44.579Z,13.50
2022-09-20T00:27:13.188Z,13.48
2022-09-20T00:29:43.017Z,13.50
2022-09-20T00:32:12.891Z,13.31
2022-09-20T00:35:00.190Z,13.47
2022-09-20T00:37:30.095Z,13.54
2022-09-20T00:39:59.932Z,13.38
2022-09-20T00:42:31.880Z,13.35
2022-09-20T00:45:07.482Z,13.17
2022-09-20T00:47:40.575Z,13.17
2022-09-20T00:50:18.625Z,13.25
2022-09-20T00:52:51.397Z,13.22
2022-09-20T00:55:22.710Z,13.27
2022-09-20T00:57:52.457Z,13.25
2022-09-20T01:00:22.517Z,13.22
2022-09-20T01:02:55.676Z,12.98
2022-09-20T01:05:26.306Z,13.08
2022-09-20T01:07:57.149Z,13.19
2022-09-20T01:10:26.885Z,12.99
2022-09-20T01:12:56.637Z,12.97
2022-09-20T01:15:29.007Z,12.98
2022-09-20T01:18:01.821Z,12.79
2022-09-20T01:20:37.642Z,12.68
2022-09-20T01:23:10.159Z,12.90
2022-09-20T01:26:15.587Z,12.50
2022-09-20T01:28:50.935Z,12.73
2022-09-20T01:31:24.071Z,12.69
2022-09-20T01:34:18.049Z,12.57
2022-09-20T01:36:53.336Z,12.70
2022-09-20T01:39:42.373Z,12.41
2022-09-20T01:42:14.229Z,12.35
2022-09-20T01:45:03.417Z,12.45
2022-09-20T01:48:07.515Z,12.31
2022-09-20T01:50:40.361Z,12.40
2022-09-20T01:53:46.004Z,12.44
2022-09-20T01:56:30.609Z,12.60
2022-09-20T01:59:30.940Z,12.62
2022-09-20T02:02:00.984Z,12.62
2022-09-20T02:04:42.549Z,12.49
2022-09-20T02:07:37.890Z,12.60
2022-09-20T02:10:28.829Z,12.54
2022-09-20T02:13:01.620Z,12.65
2022-09-20T02:15:59.204Z,12.57
2022-09-20T02:18:50.141Z,12.51
2022-09-20T02:21:23.040Z,12.54
2022-09-20T02:24:10.325Z,12.69
2022-09-20T02:26:46.375Z,12.73
2022-09-20T02:29:31.101Z,12.53
2022-09-20T02:32:15.654Z,12.56
2022-09-20T02:35:15.648Z,12.58
2022-09-20T02:38:07.967Z,12.47
2022-09-20T02:40:52.728Z,12.62
2022-09-20T02:43:40.257Z,12.50
2022-09-20T02:46:23.630Z,12.55
2022-09-20T02:49:08.597Z,12.44
2022-09-20T02:51:56.456Z,12.44
2022-09-20T02:54:53.217Z,12.48
2022-09-20T02:57:34.501Z,12.64
2022-09-20T03:00:09.749Z,12.61
2022-09-20T03:03:00.412Z,12.37
2022-09-20T03:06:03.144Z,12.37
2022-09-20T03:08:41.651Z,12.51
2022-09-20T03:11:26.280Z,12.53
2022-09-20T03:14:15.789Z,12.50
2022-09-20T03:17:02.157Z,12.44
2022-09-20T03:19:49.644Z,12.56
2022-09-20T03:22:51.948Z,12.56
2022-09-20T03:25:54.351Z,12.27
2022-09-20T03:28:44.596Z,12.27
2022-09-20T03:31:45.937Z,12.23
2022-09-20T03:34:38.028Z,12.09
2022-09-20T03:37:16.585Z,12.09
2022-09-20T03:40:00.557Z,12.16
2022-09-20T03:42:31.308Z,12.19
2022-09-20T03:45:20.330Z,12.41
2022-09-20T03:48:07.842Z,12.41
2022-09-20T03:50:49.567Z,12.41
2022-09-20T03:53:45.153Z,12.41
2022-09-20T03:56:35.479Z,12.35
2022-09-20T03:59:27.388Z,12.36
2022-09-20T04:02:17.435Z,12.33
2022-09-20T04:04:55.804Z,12.16
2022-09-20T04:07:49.405Z,12.37
2022-09-20T04:10:30.738Z,12.23
2022-09-20T04:13:17.940Z,12.18
2022-09-20T04:16:11.190Z,12.29
2022-09-20T04:18:58.287Z,12.36
2022-09-20T04:21:53.375Z,12.32
2022-09-20T04:24:43.233Z,12.19
2022-09-20T04:27:30.712Z,12.35
2022-09-20T04:30:05.693Z,12.35
2022-09-20T04:33:11.352Z,12.45
2022-09-20T04:36:21.225Z,12.33
2022-09-20T04:38:54.473Z,12.32
2022-09-20T04:41:36.258Z,12.28
2022-09-20T04:44:16.261Z,12.20
2022-09-20T04:47:09.866Z,12.22
2022-09-20T04:50:09.280Z,12.17
2022-09-20T04:52:44.800Z,12.15
2022-09-20T04:55:29.684Z,12.11
2022-09-20T04:58:29.207Z,12.11
2022-09-20T05:01:11.075Z,12.00
2022-09-20T05:03:43.848Z,12.03
2022-09-20T05:06:38.229Z,11.84
2022-09-20T05:09:32.321Z,11.82
2022-09-20T05:12:37.040Z,11.86
2022-09-20T05:15:13.902Z,11.65
2022-09-20T05:17:49.346Z,11.68
2022-09-20T05:20:53.922Z,11.65
2022-09-20T05:24:00.871Z,11.56
2022-09-20T05:26:45.154Z,11.60
2022-09-20T05:29:29.535Z,11.53
2022-09-20T05:32:11.278Z,11.53
2022-09-20T05:34:46.762Z,11.51
2022-09-20T05:37:43.644Z,11.55
2022-09-20T05:40:39.314Z,11.32
2022-09-20T05:43:24.479Z,11.30
2022-09-20T05:46:31.384Z,11.12
2022-09-20T05:49:06.760Z,11.12
2022-09-20T05:51:45.672Z,11.35
2022-09-20T05:54:26.950Z,11.35
2022-09-20T05:57:15.851Z,11.42
2022-09-20T06:00:07.573Z,11.42
2022-09-20T06:03:04.310Z,11.50
2022-09-20T06:05:42.790Z,11.51
2022-09-20T06:08:29.934Z,11.74
2022-09-20T06:11:02.739Z,11.58
2022-09-20T06:13:50.045Z,11.70
2022-09-20T06:16:28.464Z,11.82
2022-09-20T06:19:17.708Z,11.94
2022-09-20T06:22:03.495Z,12.13
2022-09-20T06:24:54.100Z,12.27
2022-09-20T06:27:27.053Z,12.52
2022-09-20T06:29:59.833Z,12.83
2022-09-20T06:32:29.575Z,12.96
2022-09-20T06:35:02.425Z,12.99
2022-09-20T06:37:52.677Z,13.02
2022-09-20T06:40:57.875Z,13.00
2022-09-20T06:43:29.250Z,13.15
2022-09-20T06:45:59.617Z,13.30
2022-09-20T06:48:30.741Z,13.15
2022-09-20T06:51:01.748Z,13.32
2022-09-20T06:53:34.035Z,13.57
2022-09-20T06:56:04.235Z,13.71
2022-09-20T06:58:33.943Z,13.57
2022-09-20T07:01:03.806Z,13.72
2022-09-20T07:03:33.665Z,13.90
2022-09-20T07:06:04.371Z,13.91
2022-09-20T07:08:34.113Z,13.73
2022-09-20T07:11:12.428Z,14.01
2022-09-20T07:13:42.586Z,14.19
2022-09-20T07:16:17.571Z,14.09
2022-09-20T07:18:48.391Z,13.98
2022-09-20T07:21:19.974Z,14.56
2022-09-20T07:23:51.153Z,14.59
2022-09-20T07:26:26.871Z,14.59
2022-09-20T07:28:57.426Z,14.60
2022-09-20T07:31:29.296Z,14.55
2022-09-20T07:33:59.021Z,14.79
2022-09-20T07:36:29.215Z,14.99
2022-09-20T07:38:59.092Z,15.16
2022-09-20T07:41:30.425Z,14.93
2022-09-20T07:44:01.879Z,15.16
2022-09-20T07:46:33.255Z,14.97
2022-09-20T07:49:03.907Z,15.07
2022-09-20T07:51:33.640Z,14.99
2022-09-20T07:54:03.392Z,15.14
2022-09-20T07:56:33.114Z,15.11
2022-09-20T07:59:02.881Z,15.07
2022-09-20T08:01:32.930Z,14.98
2022-09-20T08:04:03.118Z,15.10
2022-09-20T08:06:33.388Z,15.29
2022-09-20T08:09:03.197Z,15.45
2022-09-20T08:11:34.308Z,14.98
2022-09-20T08:14:06.196Z,15.41
2022-09-20T08:16:41.044Z,15.41
2022-09-20T08:19:12.642Z,15.12
2022-09-20T08:21:42.129Z,15.55
2022-09-20T08:24:13.529Z,15.68
2022-09-20T08:26:43.528Z,15.68
2022-09-20T08:29:15.207Z,16.28
2022-09-20T08:31:46.313Z,16.07
2022-09-20T08:34:18.308Z,16.66
2022-09-20T08:36:50.231Z,17.15
2022-09-20T08:42:11.002Z,16.75
2022-09-20T08:44:47.093Z,16.62
2022-09-20T08:47:25.451Z,16.28
2022-09-20T08:49:57.365Z,16.67
2022-09-20T08:52:35.868Z,16.70
2022-09-20T08:55:07.679Z,16.95
2022-09-20T08:57:34.962Z,17.04
2022-09-20T09:00:07.486Z,16.95
2022-09-20T09:02:37.910Z,16.97
2022-09-20T09:05:12.433Z,16.75
2022-09-20T09:07:42.474Z,16.61
2022-09-20T09:10:14.260Z,16.24
2022-09-20T09:12:48.807Z,16.14
2022-09-20T09:15:24.514Z,16.08
2022-09-20T09:17:56.092Z,15.93
2022-09-20T09:20:26.344Z,15.74
2022-09-20T09:23:08.937Z,15.96
2022-09-20T09:25:40.494Z,15.65
2022-09-20T09:28:15.308Z,15.93
2022-09-20T09:30:49.109Z,15.93
2022-09-20T09:33:24.990Z,15.85
2022-09-20T09:35:57.188Z,15.58
2022-09-20T09:38:29.966Z,15.31
2022-09-20T09:41:02.471Z,15.37
2022-09-20T09:43:35.506Z,15.57
2022-09-20T09:46:27.404Z,15.81
2022-09-20T09:49:19.385Z,15.64
2022-09-20T09:52:19.788Z,15.68
2022-09-20T09:54:56.566Z,15.33
2022-09-20T09:57:44.440Z,15.62
2022-09-20T10:00:21.935Z,15.62
2022-09-20T10:03:21.309Z,15.86
2022-09-20T10:06:03.969Z,15.97
2022-09-20T10:08:48.945Z,15.97
2022-09-20T10:11:55.858Z,16.06
2022-09-20T10:14:43.200Z,16.45
2022-09-20T10:17:49.142Z,16.62
2022-09-20T10:20:31.130Z,16.68
2022-09-20T10:23:39.384Z,17.08
2022-09-20T10:25:58.222Z,16.88
2022-09-20T10:28:41.484Z,17.16
2022-09-20T10:31:17.009Z,17.67
2022-09-20T10:33:52.923Z,17.93
2022-09-20T10:36:31.094Z,17.63
2022-09-20T10:39:21.657Z,17.78
2022-09-20T10:42:20.769Z,18.77
2022-09-20T10:45:53.308Z,18.77
2022-09-20T10:48:17.089Z,19.01
2022-09-20T10:51:04.612Z,19.14
2022-09-20T10:53:46.575Z,18.92
2022-09-20T10:56:30.852Z,18.81
2022-09-20T10:59:16.403Z,18.93
2022-09-20T11:02:08.222Z,18.71
2022-09-20T11:05:03.186Z,18.62
2022-09-20T11:07:44.592Z,18.50
2022-09-20T11:10:22.588Z,18.46
2022-09-20T11:12:53.702Z,18.68
2022-09-20T11:15:26.430Z,18.18
2022-09-20T11:18:10.462Z,17.65
2022-09-20T11:20:46.087Z,17.44
2022-09-20T11:23:18.865Z,17.76
2022-09-20T11:26:00.546Z,17.94
2022-09-20T11:28:39.245Z,17.41
2022-09-20T11:31:28.413Z,17.41
2022-09-20T11:34:01.381Z,17.39
2022-09-20T11:36:38.679Z,17.19
2022-09-20T11:39:29.326Z,17.21
2022-09-20T11:42:02.200Z,17.45
2022-09-20T11:44:33.742Z,17.60
2022-09-20T11:47:06.506Z,18.00
2022-09-20T11:50:01.639Z,18.43
2022-09-20T11:52:37.091Z,18.30
2022-09-20T11:55:28.541Z,18.17
2022-09-20T11:58:03.896Z,18.22
2022-09-20T12:00:36.781Z,18.25
2022-09-20T12:03:13.043Z,18.02
2022-09-20T12:05:43.811Z,18.21
2022-09-20T12:08:39.180Z,18.65
2022-09-20T12:11:14.710Z,18.93
2022-09-20T12:13:56.067Z,19.57
2022-09-20T12:16:37.613Z,19.38
2022-09-20T12:19:15.052Z,19.56
2022-09-20T12:22:05.452Z,19.86
2022-09-20T12:24:36.854Z,19.41
2022-09-20T12:27:31.951Z,19.60
2022-09-20T12:30:19.815Z,19.74
2022-09-20T12:32:56.249Z,19.84
2022-09-20T12:35:42.259Z,20.00
2022-09-20T12:38:25.320Z,20.02
2022-09-20T12:41:10.034Z,19.75
2022-09-20T12:43:57.781Z,19.65
2022-09-20T12:46:42.412Z,19.97
2022-09-20T12:49:59.828Z,19.69
2022-09-20T12:52:52.676Z,19.51
2022-09-20T12:55:34.317Z,19.81
2022-09-20T12:58:15.884Z,19.90
2022-09-20T13:00:54.507Z,19.94
2022-09-20T13:03:36.319Z,19.97
2022-09-20T13:06:12.335Z,19.97
2022-09-20T13:09:04.732Z,20.17
2022-09-20T13:11:46.681Z,19.96
2022-09-20T13:14:25.367Z,19.58
2022-09-20T13:17:14.606Z,19.76
2022-09-20T13:19:47.181Z,19.61
2022-09-20T13:22:28.524Z,19.75
2022-09-20T13:25:01.168Z,20.04
2022-09-20T13:27:39.641Z,20.72
2022-09-20T13:30:21.196Z,20.44
2022-09-20T13:32:52.359Z,20.18
2022-09-20T13:35:31.549Z,20.29
2022-09-20T13:38:07.596Z,20.16
2022-09-20T13:40:47.712Z,20.25
2022-09-20T13:43:32.516Z,19.95
2022-09-20T13:46:17.118Z,20.49
2022-09-20T13:48:55.468Z,20.92
2022-09-20T13:51:27.567Z,21.27
2022-09-20T13:54:00.332Z,20.76
2022-09-20T13:56:32.512Z,21.36
2022-09-20T13:59:05.319Z,21.71
2022-09-20T14:01:39.813Z,21.15
2022-09-20T14:04:16.309Z,21.06
2022-09-20T14:06:46.795Z,21.00
2022-09-20T14:09:28.701Z,21.17
2022-09-20T14:11:59.883Z,21.23
2022-09-20T14:14:30.929Z,20.72
2022-09-20T14:17:02.621Z,20.67
2022-09-20T14:19:37.183Z,20.19
2022-09-20T14:22:11.341Z,19.80
2022-09-20T14:24:41.633Z,19.93
2022-09-20T14:27:22.387Z,20.51
2022-09-20T14:29:54.545Z,20.57
2022-09-20T14:32:36.195Z,20.36
2022-09-20T14:35:10.377Z,20.23
2022-09-20T14:37:49.465Z,20.31
2022-09-20T14:40:28.541Z,20.51
2022-09-20T14:43:06.763Z,20.28
2022-09-20T14:45:40.161Z,20.28
2022-09-20T14:48:14.457Z,20.16
2022-09-20T14:50:47.162Z,19.68
2022-09-20T14:53:22.833Z,19.42
2022-09-20T14:56:07.183Z,19.50
2022-09-20T14:58:56.697Z,19.38
2022-09-20T15:01:27.140Z,19.39
2022-09-20T15:03:58.428Z,19.39
2022-09-20T15:06:28.236Z,19.48
2022-09-20T15:08:59.512Z,18.79
2022-09-20T15:11:29.903Z,19.15
2022-09-20T15:13:59.627Z,19.26
2022-09-20T15:16:30.311Z,19.42
2022-09-20T15:19:00.101Z,19.00
2022-09-20T15:21:30.408Z,19.35
2022-09-20T15:24:00.216Z,19.32
2022-09-20T15:26:31.416Z,19.64
2022-09-20T15:29:02.377Z,19.56
2022-09-20T15:31:32.470Z,19.44
2022-09-20T15:34:02.263Z,19.69
2022-09-20T15:36:32.146Z,19.89
2022-09-20T15:39:02.015Z,19.58
2022-09-20T15:41:32.242Z,19.40
2022-09-20T15:44:02.491Z,19.53
2022-09-20T15:46:32.502Z,19.22
2022-09-20T15:49:04.650Z,19.31
2022-09-20T15:51:35.261Z,19.45
2022-09-20T15:54:09.420Z,19.61
2022-09-20T15:56:41.447Z,19.61
2022-09-20T15:59:14.367Z,19.52
2022-09-20T16:01:48.169Z,19.60
2022-09-20T16:04:19.874Z,19.54
2022-09-20T16:06:51.037Z,19.43
2022-09-20T16:09:22.314Z,19.06
2022-09-20T16:11:53.746Z,19.21
2022-09-20T16:14:23.488Z,19.31
2022-09-20T16:16:52.969Z,19.63
2022-09-20T16:19:23.776Z,19.85
2022-09-20T16:21:58.887Z,19.77
2022-09-20T16:24:30.157Z,19.77
2022-09-20T16:27:01.207Z,19.74
2022-09-20T16:29:31.643Z,19.44
2022-09-20T16:32:03.470Z,19.45
2022-09-20T16:34:35.535Z,19.39
2022-09-20T16:37:08.733Z,19.43
2022-09-20T16:39:40.369Z,19.26
2022-09-20T16:42:13.123Z,19.05
2022-09-20T16:44:44.220Z,18.71
2022-09-20T16:47:20.704Z,18.58
2022-09-20T16:49:51.865Z,18.68
2022-09-20T16:52:22.279Z,18.63
2022-09-20T16:54:52.018Z,18.46
2022-09-20T16:57:22.303Z,18.21
2022-09-20T16:59:53.806Z,17.94
2022-09-20T17:02:23.537Z,17.75
2022-09-20T17:04:53.628Z,17.85
2022-09-20T17:07:24.260Z,17.51
2022-09-20T17:09:55.663Z,17.49
2022-09-20T17:12:27.632Z,17.31
2022-09-20T17:14:57.359Z,17.34
2022-09-20T17:17:27.094Z,17.28
2022-09-20T17:19:56.847Z,17.10
2022-09-20T17:22:26.398Z,17.10
2022-09-20T17:24:56.101Z,17.04
2022-09-20T17:27:26.034Z,16.88
2022-09-20T17:29:56.310Z,16.61
2022-09-20T17:32:26.241Z,16.66
2022-09-20T17:34:56.007Z,16.47
2022-09-20T17:37:25.894Z,16.40
2022-09-20T17:39:57.373Z,16.30
2022-09-20T17:42:28.278Z,16.13
2022-09-20T17:44:58.300Z,16.14
2022-09-20T17:47:28.372Z,16.11
2022-09-20T17:49:58.115Z,16.05
2022-09-20T17:52:27.838Z,15.82
2022-09-20T17:54:57.561Z,15.75
2022-09-20T17:57:27.319Z,15.58
2022-09-20T17:59:57.535Z,15.68
2022-09-20T18:02:27.564Z,15.54
2022-09-20T18:04:57.275Z,15.37
2022-09-20T18:07:27.009Z,15.25
2022-09-20T18:09:57.310Z,15.28
2022-09-20T18:12:27.053Z,15.11
2022-09-20T18:14:57.205Z,15.10
2022-09-20T18:17:26.947Z,14.93
2022-09-20T18:19:56.693Z,14.83
2022-09-20T18:22:26.224Z,14.90
2022-09-20T18:24:56.374Z,14.79
2022-09-20T18:27:26.102Z,14.65
2022-09-20T18:29:55.836Z,14.50
2022-09-20T18:32:28.718Z,14.55
2022-09-20T18:34:58.745Z,14.48
2022-09-20T18:37:28.988Z,14.44
2022-09-20T18:39:59.088Z,14.38
2022-09-20T18:42:30.462Z,14.21
2022-09-20T18:45:00.477Z,14.29
2022-09-20T18:47:31.672Z,14.32
2022-09-20T18:50:01.696Z,14.20
2022-09-20T18:52:31.898Z,14.19
2022-09-20T18:55:03.614Z,14.19
2022-09-20T18:57:33.776Z,14.11
2022-09-20T19:00:04.474Z,14.04
2022-09-20T19:02:52.694Z,14.14
2022-09-20T19:05:28.189Z,13.98
2022-09-20T19:08:01.249Z,13.86
2022-09-20T19:10:45.797Z,13.64
2022-09-20T19:13:18.860Z,13.61
2022-09-20T19:15:57.400Z,13.60
2022-09-20T19:18:50.813Z,13.50
2022-09-20T19:21:50.711Z,13.50
2022-09-20T19:24:32.469Z,13.35
2022-09-20T19:27:02.355Z,13.35
2022-09-20T19:29:33.105Z,13.42
2022-09-20T19:32:03.197Z,13.45
2022-09-20T19:34:33.792Z,13.46
2022-09-20T19:37:29.749Z,13.40
2022-09-20T19:40:17.600Z,13.31
2022-09-20T19:42:56.400Z,13.21
2022-09-20T19:45:40.629Z,13.29
2022-09-20T19:48:42.375Z,13.20
2022-09-20T19:51:13.943Z,13.17
2022-09-20T19:53:43.927Z,13.13
2022-09-20T19:56:21.222Z,13.15
2022-09-20T19:58:52.852Z,13.07
2022-09-20T20:01:24.099Z,13.04
2022-09-20T20:03:55.317Z,13.07
2022-09-20T20:06:30.945Z,13.04
2022-09-20T20:09:09.275Z,13.10
2022-09-20T20:11:53.809Z,13.06
2022-09-20T20:14:35.164Z,13.06
2022-09-20T20:17:33.395Z,13.05
2022-09-20T20:20:27.538Z,13.03
2022-09-20T20:23:19.153Z,12.93
2022-09-20T20:26:12.643Z,12.97
2022-09-20T20:28:42.395Z,12.92
2022-09-20T20:31:12.590Z,12.90
2022-09-20T20:33:43.296Z,12.90
2022-09-20T20:36:14.329Z,12.87
2022-09-20T20:38:45.885Z,12.97
2022-09-20T20:41:18.485Z,12.92
2022-09-20T20:43:49.324Z,13.02
2022-09-20T20:46:19.791Z,13.02
2022-09-20T20:48:49.708Z,12.99
2022-09-20T20:51:21.826Z,12.98
2022-09-20T20:53:53.763Z,13.09
2022-09-20T20:56:26.172Z,13.17
2022-09-20T20:58:58.496Z,13.03
2022-09-20T21:01:34.225Z,13.16
2022-09-20T21:04:07.389Z,13.01
2022-09-20T21:06:40.470Z,13.11
2022-09-20T21:09:11.820Z,13.15
2022-09-20T21:11:47.454Z,13.19
2022-09-20T21:14:17.982Z,13.20
2022-09-20T21:16:47.739Z,13.19
2022-09-20T21:19:18.747Z,13.02
2022-09-20T21:21:48.753Z,13.08
2022-09-20T21:24:18.558Z,13.22
2022-09-20T21:26:48.407Z,13.24
2022-09-20T21:29:19.478Z,13.04
2022-09-20T21:31:49.326Z,13.12
2022-09-20T21:34:18.766Z,13.04
2022-09-20T21:36:48.500Z,13.03
2022-09-20T21:39:17.964Z,13.07
2022-09-20T21:41:48.676Z,13.16
2022-09-20T21:44:20.080Z,13.28
2022-09-20T21:46:50.422Z,13.19
2022-09-20T21:49:20.204Z,13.34
2022-09-20T21:51:51.590Z,13.06
2022-09-20T21:54:21.028Z,13.19
2022-09-20T21:56:52.438Z,13.25
2022-09-20T21:59:22.821Z,13.25
2022-09-20T22:01:52.878Z,13.24
2022-09-20T22:04:23.023Z,13.15
2022-09-20T22:06:52.767Z,13.14
2022-09-20T22:09:24.115Z,13.23
2022-09-20T22:11:53.932Z,13.20
2022-09-20T22:14:24.024Z,13.04
2022-09-20T22:16:54.096Z,13.04
2022-09-20T22:19:24.386Z,12.96
2022-09-20T22:21:54.211Z,13.10
2022-09-20T22:24:23.999Z,13.23
2022-09-20T22:26:54.126Z,13.20
2022-09-20T22:29:23.682Z,13.22
2022-09-20T22:31:53.857Z,12.98
2022-09-20T22:34:24.833Z,13.16
2022-09-20T22:36:55.025Z,12.94
2022-09-20T22:39:24.980Z,12.95
2022-09-20T22:41:54.785Z,12.83
2022-09-20T22:44:24.693Z,12.89
2022-09-20T22:46:54.551Z,13.13
2022-09-20T22:49:24.392Z,13.05
2022-09-20T22:51:54.205Z,13.10
2022-09-20T22:54:23.750Z,13.00
2022-09-20T22:56:53.581Z,13.12
2022-09-20T22:59:23.387Z,13.01
2022-09-20T23:01:53.012Z,13.03
2022-09-20T23:04:23.590Z,12.97
2022-09-20T23:06:57.388Z,12.97
2022-09-20T23:09:28.333Z,13.06
2022-09-20T23:11:58.490Z,12.94
2022-09-20T23:14:28.383Z,13.05
2022-09-20T23:16:58.318Z,13.00
2022-09-20T23:19:28.306Z,13.08
2022-09-20T23:21:58.103Z,13.17
2022-09-20T23:24:27.825Z,13.17
2022-09-20T23:26:57.701Z,13.13
2022-09-20T23:29:27.883Z,12.91
2022-09-20T23:31:57.840Z,12.97
2022-09-20T23:34:27.652Z,12.91
2022-09-20T23:36:57.458Z,12.84
2022-09-20T23:39:27.850Z,12.94
2022-09-20T23:41:57.729Z,12.97
2022-09-20T23:44:27.529Z,13.03
2022-09-20T23:46:57.336Z,12.99
2022-09-20T23:49:27.566Z,12.98
2022-09-20T23:51:57.482Z,12.91
2022-09-20T23:54:27.496Z,13.00
2022-09-20T23:56:57.291Z,12.85
2022-09-20T23:59:27.095Z,12.84
